Time;durP1;ratioP1;P1;durP2;ratioP2;P2;SDS_P1;SDS_P2;PMS_P1;PMS_P2;Temp;Humidity;BMP_temperature;BMP_pressure;BME280_temperature;BME280_humidity;BME280_pressure;Samples;Min_cycle;Max_cycle;Signal;HPM_P1;HPM_P2
2022/05/12 00:00:23;;;;;;;7.60;1.90;;;;;;;;;;5093874;28;20120;-66
2022/05/12 00:02:49;;;;;;;14.30;2.00;;;;;;;;;;5093509;28;20054;-66
2022/05/12 00:05:15;;;;;;;5.63;1.75;;;;;;;;;;5093584;28;20040;-67
2022/05/12 00:07:43;;;;;;;11.93;2.30;;;;;;;;;;5093367;28;20047;-67
2022/05/12 00:10:10;;;;;;;9.38;2.03;;;;;;;;;;5092029;28;20044;-67
2022/05/12 00:12:36;;;;;;;9.20;2.10;;;;;;;;;;5093455;28;20078;-66
2022/05/12 00:15:03;;;;;;;9.32;2.08;;;;;;;;;;5093258;28;20113;-67
2022/05/12 00:17:29;;;;;;;8.68;1.88;;;;;;;;;;5093241;28;20071;-67
2022/05/12 00:19:55;;;;;;;9.20;2.08;;;;;;;;;;5093352;28;20411;-66
2022/05/12 00:22:21;;;;;;;10.15;2.00;;;;;;;;;;5091847;28;20113;-66
2022/05/12 00:24:47;;;;;;;5.95;1.63;;;;;;;;;;5092970;28;20047;-66
2022/05/12 00:27:13;;;;;;;7.47;1.85;;;;;;;;;;5092965;28;20044;-67
2022/05/12 00:29:39;;;;;;;5.38;1.90;;;;;;;;;;5093117;28;20123;-67
2022/05/12 00:32:06;;;;;;;10.13;1.50;;;;;;;;;;5092892;28;20047;-67
2022/05/12 00:34:32;;;;;;;6.40;1.55;;;;;;;;;;5092948;28;20119;-67
2022/05/12 00:36:58;;;;;;;6.97;1.40;;;;;;;;;;5093125;28;20048;-66
2022/05/12 00:39:24;;;;;;;7.60;1.50;;;;;;;;;;5092874;28;20088;-67
2022/05/12 00:41:50;;;;;;;6.80;1.40;;;;;;;;;;5092868;28;20052;-66
2022/05/12 00:44:16;;;;;;;7.38;1.60;;;;;;;;;;5092889;28;20487;-65
2022/05/12 00:46:43;;;;;;;4.18;1.48;;;;;;;;;;5093203;28;20416;-65
2022/05/12 00:49:29;;;;;;;7.45;1.55;;;;;;;;;;5092669;28;20039;-66
2022/05/12 00:51:58;;;;;;;4.13;1.60;;;;;;;;;;5093039;28;20050;-66
2022/05/12 00:54:26;;;;;;;4.75;1.80;;;;;;;;;;5091885;28;20117;-66
2022/05/12 00:56:53;;;;;;;11.20;2.05;;;;;;;;;;5092800;28;20046;-66
2022/05/12 00:59:26;;;;;;;6.03;1.63;;;;;;;;;;5094301;28;20036;-66
2022/05/12 01:01:53;;;;;;;6.22;1.77;;;;;;;;;;5093627;28;20068;-65
2022/05/12 01:04:20;;;;;;;6.68;2.10;;;;;;;;;;5092490;28;20040;-66
2022/05/12 01:06:46;;;;;;;7.57;1.80;;;;;;;;;;5092789;28;20151;-66
2022/05/12 01:09:12;;;;;;;6.57;2.13;;;;;;;;;;5092814;28;20044;-66
2022/05/12 01:11:39;;;;;;;3.97;1.45;;;;;;;;;;5092847;28;20040;-66
2022/05/12 01:14:05;;;;;;;14.68;2.20;;;;;;;;;;5092450;28;20093;-66
2022/05/12 01:16:55;;;;;;;5.05;1.60;;;;;;;;;;5092616;28;20093;-66
2022/05/12 01:19:25;;;;;;;6.80;1.80;;;;;;;;;;5089520;28;20052;-66
2022/05/12 01:21:52;;;;;;;7.22;2.10;;;;;;;;;;5092566;28;20040;-66
2022/05/12 01:24:19;;;;;;;5.18;1.48;;;;;;;;;;5092427;28;20044;-66
2022/05/12 01:26:46;;;;;;;5.63;1.67;;;;;;;;;;5091241;28;20123;-67
2022/05/12 01:29:12;;;;;;;7.85;1.77;;;;;;;;;;5091075;28;20052;-66
2022/05/12 01:31:38;;;;;;;15.15;2.42;;;;;;;;;;5092070;28;20579;-67
2022/05/12 01:34:06;;;;;;;8.45;1.90;;;;;;;;;;5092112;28;20486;-66
2022/05/12 01:36:32;;;;;;;4.45;1.40;;;;;;;;;;5092258;28;20039;-66
2022/05/12 01:38:58;;;;;;;6.60;1.90;;;;;;;;;;5092487;28;20052;-67
2022/05/12 01:41:24;;;;;;;4.93;1.77;;;;;;;;;;5092266;28;20040;-66
2022/05/12 01:43:50;;;;;;;6.15;1.67;;;;;;;;;;5092070;28;20491;-67
2022/05/12 01:46:16;;;;;;;7.80;2.13;;;;;;;;;;5092354;28;20127;-66
2022/05/12 01:48:42;;;;;;;5.68;1.60;;;;;;;;;;5091088;28;20052;-67
2022/05/12 01:51:09;;;;;;;5.50;1.67;;;;;;;;;;5092321;28;20501;-66
2022/05/12 01:53:34;;;;;;;7.72;1.60;;;;;;;;;;5092229;28;20093;-66
2022/05/12 01:56:01;;;;;;;5.53;1.50;;;;;;;;;;5092083;28;20040;-67
2022/05/12 01:58:27;;;;;;;4.72;1.80;;;;;;;;;;5091972;28;20491;-66
2022/05/12 02:00:53;;;;;;;5.70;3.22;;;;;;;;;;5091154;28;20131;-67
2022/05/12 02:03:19;;;;;;;4.40;1.55;;;;;;;;;;5091971;28;20127;-66
2022/05/12 02:05:45;;;;;;;5.50;1.40;;;;;;;;;;5092754;28;20036;-68
2022/05/12 02:08:12;;;;;;;4.65;1.77;;;;;;;;;;5095928;28;20055;-66
2022/05/12 02:10:39;;;;;;;3.35;1.65;;;;;;;;;;5095665;28;20040;-67
2022/05/12 02:13:07;;;;;;;5.90;1.50;;;;;;;;;;5095544;28;20479;-66
2022/05/12 02:15:33;;;;;;;3.90;1.40;;;;;;;;;;5095362;28;20070;-67
2022/05/12 02:17:59;;;;;;;5.57;1.83;;;;;;;;;;5095705;28;20186;-67
2022/05/12 02:20:25;;;;;;;5.10;1.80;;;;;;;;;;5095934;28;20503;-67
2022/05/12 02:22:51;;;;;;;4.75;1.63;;;;;;;;;;5095642;28;20044;-67
2022/05/12 02:25:18;;;;;;;6.60;2.00;;;;;;;;;;5077241;28;20051;-66
2022/05/12 02:27:46;;;;;;;4.43;1.70;;;;;;;;;;5095607;28;20044;-66
2022/05/12 02:30:14;;;;;;;6.53;2.50;;;;;;;;;;5094956;28;20558;-67
2022/05/12 02:32:40;;;;;;;8.90;2.28;;;;;;;;;;5095320;28;20069;-67
2022/05/12 02:35:06;;;;;;;7.20;2.13;;;;;;;;;;5095136;28;20044;-66
2022/05/12 02:37:32;;;;;;;6.53;2.20;;;;;;;;;;5095129;28;20051;-67
2022/05/12 02:39:58;;;;;;;8.05;2.25;;;;;;;;;;5095320;28;20048;-66
2022/05/12 02:42:24;;;;;;;5.10;2.28;;;;;;;;;;5095076;28;20048;-67
2022/05/12 02:44:50;;;;;;;8.55;2.70;;;;;;;;;;5095203;28;20097;-66
2022/05/12 02:47:17;;;;;;;6.07;2.45;;;;;;;;;;5095101;28;20533;-66
2022/05/12 02:49:43;;;;;;;5.25;2.50;;;;;;;;;;5095194;28;20051;-67
2022/05/12 02:52:09;;;;;;;6.80;2.45;;;;;;;;;;5094769;28;20487;-66
2022/05/12 02:54:36;;;;;;;5.53;2.50;;;;;;;;;;5093255;28;20040;-66
2022/05/12 02:57:02;;;;;;;10.70;2.70;;;;;;;;;;5093386;28;20044;-66
2022/05/12 02:59:28;;;;;;;10.45;4.40;;;;;;;;;;5094781;28;20044;-66
2022/05/12 03:01:54;;;;;;;6.85;2.40;;;;;;;;;;5094676;28;20047;-67
2022/05/12 03:04:20;;;;;;;6.55;2.38;;;;;;;;;;5094388;28;20040;-66
2022/05/12 03:06:46;;;;;;;6.03;3.58;;;;;;;;;;5094863;28;20054;-66
2022/05/12 03:09:12;;;;;;;8.50;2.90;;;;;;;;;;5094765;28;20093;-66
2022/05/12 03:11:39;;;;;;;9.88;2.75;;;;;;;;;;5094444;28;20048;-67
2022/05/12 03:14:05;;;;;;;17.67;4.32;;;;;;;;;;5094497;28;20040;-66
2022/05/12 03:16:31;;;;;;;9.18;3.60;;;;;;;;;;5094359;28;20405;-67
2022/05/12 03:18:58;;;;;;;6.68;3.05;;;;;;;;;;5093568;28;20073;-67
2022/05/12 03:21:24;;;;;;;6.78;2.97;;;;;;;;;;5094294;28;20123;-66
2022/05/12 03:23:50;;;;;;;7.05;2.78;;;;;;;;;;5094673;28;20115;-67
2022/05/12 03:26:17;;;;;;;8.73;2.95;;;;;;;;;;5094599;28;20051;-67
2022/05/12 03:28:43;;;;;;;6.40;2.58;;;;;;;;;;5094244;28;20081;-66
2022/05/12 03:31:09;;;;;;;7.80;2.75;;;;;;;;;;5094366;28;20119;-66
2022/05/12 03:33:36;;;;;;;5.03;2.90;;;;;;;;;;5094015;28;20379;-67
2022/05/12 03:36:02;;;;;;;6.82;3.20;;;;;;;;;;5094004;28;20044;-66
2022/05/12 03:38:28;;;;;;;10.98;4.03;;;;;;;;;;5094198;28;20432;-67
2022/05/12 03:40:54;;;;;;;9.15;3.30;;;;;;;;;;5094084;28;20050;-66
2022/05/12 03:46:06;;;;;;;6.50;2.90;;;;;;;;;;5093958;28;20070;-65
2022/05/12 03:48:33;;;;;;;8.05;3.42;;;;;;;;;;5093601;28;20134;-65
2022/05/12 03:50:58;;;;;;;7.38;3.60;;;;;;;;;;5093573;28;20043;-66
2022/05/12 03:53:25;;;;;;;18.95;4.38;;;;;;;;;;5093793;28;20048;-68
2022/05/12 03:55:51;;;;;;;13.55;3.83;;;;;;;;;;5093621;28;20055;-66
2022/05/12 03:58:17;;;;;;;7.22;3.05;;;;;;;;;;5093838;28;20048;-68
2022/05/12 04:00:43;;;;;;;10.77;3.60;;;;;;;;;;5093440;28;20399;-65
2022/05/12 04:03:09;;;;;;;8.90;3.50;;;;;;;;;;5093713;28;20043;-66
2022/05/12 04:05:35;;;;;;;12.40;4.30;;;;;;;;;;5093646;28;20082;-66
2022/05/12 04:08:01;;;;;;;11.70;4.05;;;;;;;;;;5093565;28;20498;-66
2022/05/12 04:10:28;;;;;;;12.40;3.80;;;;;;;;;;5093395;28;20100;-67
2022/05/12 04:12:54;;;;;;;9.55;3.22;;;;;;;;;;5093442;28;20047;-67
2022/05/12 04:15:21;;;;;;;12.77;4.63;;;;;;;;;;5093191;28;20040;-67
2022/05/12 04:17:55;;;;;;;11.40;3.78;;;;;;;;;;5093166;28;20119;-67
2022/05/12 04:20:21;;;;;;;14.25;3.65;;;;;;;;;;5093426;28;20044;-67
2022/05/12 04:22:47;;;;;;;11.68;3.80;;;;;;;;;;5093274;28;20068;-67
2022/05/12 04:25:13;;;;;;;9.98;4.10;;;;;;;;;;5093184;28;20502;-67
2022/05/12 04:27:40;;;;;;;14.52;4.68;;;;;;;;;;5093239;28;20521;-66
2022/05/12 04:30:07;;;;;;;11.50;4.57;;;;;;;;;;5092777;28;20547;-67
2022/05/12 04:32:33;;;;;;;20.80;5.40;;;;;;;;;;5093096;28;20044;-67
2022/05/12 04:35:15;;;;;;;11.13;4.90;;;;;;;;;;5094610;28;20050;-67
2022/05/12 04:37:51;;;;;;;37.58;9.65;;;;;;;;;;5093235;28;20051;-66
2022/05/12 04:40:22;;;;;;;15.95;4.95;;;;;;;;;;5092987;28;20046;-66
2022/05/12 04:42:49;;;;;;;9.30;4.60;;;;;;;;;;5092748;28;20040;-70
2022/05/12 04:45:15;;;;;;;11.35;4.53;;;;;;;;;;5092878;28;20560;-66
2022/05/12 04:47:42;;;;;;;12.82;4.97;;;;;;;;;;5092986;28;20048;-66
2022/05/12 04:50:09;;;;;;;13.57;4.82;;;;;;;;;;5092832;28;20165;-67
2022/05/12 04:52:35;;;;;;;12.50;6.03;;;;;;;;;;5092518;28;20376;-67
2022/05/12 04:55:01;;;;;;;16.20;5.78;;;;;;;;;;5092538;28;20047;-66
2022/05/12 04:57:27;;;;;;;15.85;5.57;;;;;;;;;;5091403;28;20395;-66
2022/05/12 04:59:55;;;;;;;18.13;5.53;;;;;;;;;;5092705;28;20056;-65
2022/05/12 05:02:22;;;;;;;18.95;5.93;;;;;;;;;;5093082;28;20055;-66
2022/05/12 05:04:48;;;;;;;15.40;5.70;;;;;;;;;;5092440;28;20051;-66
2022/05/12 05:07:14;;;;;;;14.60;5.50;;;;;;;;;;5092532;28;20279;-66
2022/05/12 05:09:41;;;;;;;15.85;6.00;;;;;;;;;;5092474;28;20505;-66
2022/05/12 05:12:07;;;;;;;15.63;7.60;;;;;;;;;;5092758;28;20051;-66
2022/05/12 05:14:33;;;;;;;17.95;6.75;;;;;;;;;;5092681;28;20040;-67
2022/05/12 05:16:59;;;;;;;18.40;7.10;;;;;;;;;;5092462;28;20521;-67
2022/05/12 05:19:25;;;;;;;17.38;6.80;;;;;;;;;;5092488;28;20040;-67
2022/05/12 05:21:51;;;;;;;16.38;7.78;;;;;;;;;;5092450;28;20075;-67
2022/05/12 05:24:18;;;;;;;19.30;8.07;;;;;;;;;;5092981;28;20051;-67
2022/05/12 05:26:44;;;;;;;22.90;9.45;;;;;;;;;;5092249;28;20048;-66
2022/05/12 05:29:10;;;;;;;22.88;8.73;;;;;;;;;;5092622;28;20105;-67
2022/05/12 05:31:38;;;;;;;24.73;9.27;;;;;;;;;;5092264;28;20066;-67
2022/05/12 05:34:04;;;;;;;21.05;8.75;;;;;;;;;;5092264;28;20131;-66
2022/05/12 05:36:30;;;;;;;20.80;9.65;;;;;;;;;;5092341;28;20051;-66
2022/05/12 05:38:56;;;;;;;19.38;9.13;;;;;;;;;;5092362;28;20075;-67
2022/05/12 05:41:22;;;;;;;22.10;9.15;;;;;;;;;;5093644;28;20075;-67
2022/05/12 05:43:48;;;;;;;19.20;9.02;;;;;;;;;;5096002;28;20089;-66
2022/05/12 05:46:16;;;;;;;18.27;8.65;;;;;;;;;;5093939;28;20490;-67
2022/05/12 05:48:43;;;;;;;18.27;9.25;;;;;;;;;;5094619;28;20119;-67
2022/05/12 05:53:54;;;;;;;17.75;9.43;;;;;;;;;;5094789;28;20056;-66
2022/05/12 05:56:20;;;;;;;17.58;8.20;;;;;;;;;;5095721;28;20131;-66
2022/05/12 05:58:46;;;;;;;15.38;8.65;;;;;;;;;;5095600;28;20048;-66
2022/05/12 06:01:13;;;;;;;18.60;9.50;;;;;;;;;;5095689;28;20040;-66
2022/05/12 06:03:39;;;;;;;18.70;8.82;;;;;;;;;;5095498;28;20519;-66
2022/05/12 06:06:05;;;;;;;19.92;8.43;;;;;;;;;;5095521;28;20036;-66
2022/05/12 06:08:32;;;;;;;18.77;9.63;;;;;;;;;;5095155;28;20094;-66
2022/05/12 06:11:03;;;;;;;17.48;8.93;;;;;;;;;;5094328;28;20411;-66
2022/05/12 06:13:29;;;;;;;21.92;9.68;;;;;;;;;;5095351;28;20048;-68
2022/05/12 06:15:55;;;;;;;21.30;9.07;;;;;;;;;;5095378;28;20042;-66
2022/05/12 06:18:21;;;;;;;18.95;9.38;;;;;;;;;;5095404;28;20067;-65
2022/05/12 06:20:49;;;;;;;22.83;9.95;;;;;;;;;;5095357;28;20063;-67
2022/05/12 06:23:15;;;;;;;21.30;9.05;;;;;;;;;;5095119;28;20039;-66
2022/05/12 06:25:41;;;;;;;22.35;9.48;;;;;;;;;;5095309;28;20051;-67
2022/05/12 06:28:07;;;;;;;19.92;8.75;;;;;;;;;;5095214;28;20033;-67
2022/05/12 06:30:33;;;;;;;20.38;8.68;;;;;;;;;;5094989;28;20071;-66
2022/05/12 06:33:00;;;;;;;15.00;8.48;;;;;;;;;;5095310;28;20052;-67
2022/05/12 06:35:26;;;;;;;20.73;8.48;;;;;;;;;;5094556;28;20478;-66
2022/05/12 06:37:53;;;;;;;18.85;8.55;;;;;;;;;;5095094;28;20038;-67
2022/05/12 06:40:19;;;;;;;15.23;8.40;;;;;;;;;;5094712;28;20044;-67
2022/05/12 06:42:45;;;;;;;18.77;9.10;;;;;;;;;;5094653;28;20048;-66
2022/05/12 06:45:13;;;;;;;18.45;8.05;;;;;;;;;;5094838;28;20046;-67
2022/05/12 06:47:39;;;;;;;14.40;6.72;;;;;;;;;;5094436;28;20533;-67
2022/05/12 06:50:05;;;;;;;16.83;7.25;;;;;;;;;;5094784;28;20046;-67
2022/05/12 06:52:32;;;;;;;17.77;7.47;;;;;;;;;;5093613;28;20044;-66
2022/05/12 06:54:58;;;;;;;20.98;8.27;;;;;;;;;;5094689;28;20089;-66
2022/05/12 06:57:27;;;;;;;16.48;7.32;;;;;;;;;;5094992;28;20086;-67
2022/05/12 06:59:53;;;;;;;15.75;7.47;;;;;;;;;;5094906;28;20404;-66
2022/05/12 07:02:19;;;;;;;13.45;6.70;;;;;;;;;;5094820;28;20036;-67
2022/05/12 07:04:46;;;;;;;14.13;6.35;;;;;;;;;;5095267;28;20605;-67
2022/05/12 07:07:13;;;;;;;13.32;6.00;;;;;;;;;;5094374;28;20506;-66
2022/05/12 07:09:39;;;;;;;8.63;5.32;;;;;;;;;;5094546;28;20457;-66
2022/05/12 07:12:05;;;;;;;23.30;7.47;;;;;;;;;;5094213;28;20166;-67
2022/05/12 07:14:31;;;;;;;12.02;5.20;;;;;;;;;;5094191;28;20071;-67
2022/05/12 07:16:58;;;;;;;12.27;6.00;;;;;;;;;;5094108;28;20124;-67
2022/05/12 07:19:24;;;;;;;10.43;5.75;;;;;;;;;;5094319;28;20046;-66
2022/05/12 07:27:19;;;;;;;9.65;4.47;;;;;;;;;;5094333;28;20052;-66
2022/05/12 07:29:46;;;;;;;10.57;5.10;;;;;;;;;;5094467;28;20189;-66
2022/05/12 07:32:13;;;;;;;20.58;5.97;;;;;;;;;;5094518;28;20051;-66
2022/05/12 07:34:40;;;;;;;13.93;4.28;;;;;;;;;;5094442;28;20067;-67
2022/05/12 07:37:06;;;;;;;8.15;3.90;;;;;;;;;;5094228;28;20048;-66
2022/05/12 07:39:33;;;;;;;12.60;4.63;;;;;;;;;;5094151;28;20054;-66
2022/05/12 07:42:00;;;;;;;10.65;4.30;;;;;;;;;;5094084;28;20039;-67
2022/05/12 07:44:32;;;;;;;9.85;4.15;;;;;;;;;;5094262;28;20048;-66
2022/05/12 07:47:00;;;;;;;23.33;8.32;;;;;;;;;;5094383;28;20052;-66
2022/05/12 07:49:28;;;;;;;8.88;3.97;;;;;;;;;;5092705;28;20051;-66
2022/05/12 07:51:54;;;;;;;10.63;2.90;;;;;;;;;;5093961;28;20126;-67
2022/05/12 07:54:20;;;;;;;9.93;3.83;;;;;;;;;;5093914;28;20052;-68
2022/05/12 07:56:46;;;;;;;6.95;3.45;;;;;;;;;;5093717;28;20409;-65
2022/05/12 07:59:12;;;;;;;8.02;3.15;;;;;;;;;;5094094;28;20399;-69
2022/05/12 08:01:38;;;;;;;11.40;4.30;;;;;;;;;;5095110;28;20044;-65
2022/05/12 08:04:04;;;;;;;7.40;2.95;;;;;;;;;;5092551;28;20043;-65
2022/05/12 08:06:31;;;;;;;7.10;3.40;;;;;;;;;;5093609;28;20040;-66
2022/05/12 08:08:57;;;;;;;9.32;3.30;;;;;;;;;;5093700;28;20047;-66
2022/05/12 08:11:24;;;;;;;7.82;3.20;;;;;;;;;;5093329;28;20126;-66
2022/05/12 08:13:51;;;;;;;12.18;3.47;;;;;;;;;;5093581;28;20051;-66
2022/05/12 08:16:18;;;;;;;8.80;3.10;;;;;;;;;;5093451;28;20048;-66
2022/05/12 08:18:45;;;;;;;8.55;3.15;;;;;;;;;;5093295;28;20483;-66
2022/05/12 08:21:12;;;;;;;10.55;4.07;;;;;;;;;;5093219;28;20044;-66
2022/05/12 08:23:38;;;;;;;9.40;2.90;;;;;;;;;;5093387;28;20101;-67
2022/05/12 08:26:04;;;;;;;11.00;2.85;;;;;;;;;;5093423;28;20122;-66
2022/05/12 08:28:30;;;;;;;9.02;3.05;;;;;;;;;;5093355;28;20083;-66
2022/05/12 08:30:56;;;;;;;6.07;2.28;;;;;;;;;;5093108;28;20056;-66
2022/05/12 08:33:23;;;;;;;8.90;3.10;;;;;;;;;;5093452;28;20453;-66
2022/05/12 08:35:50;;;;;;;9.13;2.63;;;;;;;;;;5093350;28;20050;-66
2022/05/12 08:38:16;;;;;;;5.63;2.30;;;;;;;;;;5094018;28;20040;-67
2022/05/12 08:40:48;;;;;;;8.73;2.88;;;;;;;;;;5093368;28;20042;-66
2022/05/12 08:43:16;;;;;;;10.18;3.20;;;;;;;;;;5093272;28;20047;-67
2022/05/12 08:45:42;;;;;;;5.50;2.88;;;;;;;;;;5093117;28;20055;-68
2022/05/12 08:48:10;;;;;;;7.18;2.80;;;;;;;;;;5092956;28;20040;-67
2022/05/12 08:50:36;;;;;;;4.53;2.60;;;;;;;;;;5092636;28;20403;-66
2022/05/12 08:53:05;;;;;;;6.43;2.70;;;;;;;;;;5093606;28;20140;-67
2022/05/12 08:55:49;;;;;;;5.25;2.35;;;;;;;;;;5093720;28;20052;-67
2022/05/12 08:58:22;;;;;;;6.65;2.38;;;;;;;;;;5093316;28;20044;-67
2022/05/12 09:00:56;;;;;;;4.30;2.20;;;;;;;;;;5093022;28;20048;-67
2022/05/12 09:03:49;;;;;;;7.15;3.10;;;;;;;;;;5093706;28;20054;-67
2022/05/12 09:06:14;;;;;;;10.57;2.78;;;;;;;;;;5093610;28;20040;-67
2022/05/12 09:09:02;;;;;;;4.43;2.35;;;;;;;;;;5093387;28;20513;-67
2022/05/12 09:11:47;;;;;;;12.73;3.35;;;;;;;;;;5092255;28;20040;-66
2022/05/12 09:14:18;;;;;;;9.32;2.83;;;;;;;;;;5092446;28;20123;-67
2022/05/12 09:16:44;;;;;;;5.43;2.70;;;;;;;;;;5094456;28;20383;-66
2022/05/12 09:19:14;;;;;;;4.47;2.17;;;;;;;;;;5096930;28;20364;-66
2022/05/12 09:21:40;;;;;;;8.80;2.33;;;;;;;;;;5096472;28;20407;-66
2022/05/12 09:24:07;;;;;;;8.48;2.50;;;;;;;;;;5096435;28;20174;-67
2022/05/12 09:26:38;;;;;;;7.88;2.53;;;;;;;;;;5096062;28;20052;-66
2022/05/12 09:29:09;;;;;;;8.85;2.33;;;;;;;;;;5096415;28;20096;-67
2022/05/12 09:31:35;;;;;;;6.68;2.13;;;;;;;;;;5096029;28;20049;-67
2022/05/12 09:34:13;;;;;;;4.53;1.60;;;;;;;;;;5096120;28;20044;-67
2022/05/12 09:36:39;;;;;;;6.68;1.42;;;;;;;;;;5096083;28;20040;-66
2022/05/12 09:39:05;;;;;;;5.10;1.63;;;;;;;;;;5096240;28;20036;-66
2022/05/12 09:41:31;;;;;;;3.72;1.60;;;;;;;;;;5096637;28;20394;-67
2022/05/12 09:43:57;;;;;;;6.82;2.35;;;;;;;;;;5095726;28;20557;-68
2022/05/12 09:46:29;;;;;;;7.75;1.73;;;;;;;;;;5096363;28;20039;-67
2022/05/12 09:48:55;;;;;;;3.60;1.63;;;;;;;;;;5096809;28;20513;-67
2022/05/12 09:51:30;;;;;;;7.90;2.10;;;;;;;;;;5096506;28;20123;-67
2022/05/12 09:54:15;;;;;;;6.20;2.60;;;;;;;;;;5095370;28;20048;-67
2022/05/12 09:56:44;;;;;;;6.72;1.92;;;;;;;;;;5096416;28;20388;-67
2022/05/12 09:59:10;;;;;;;;;;;;;;;;;;5098061;28;20479;-67
2022/05/12 10:01:48;;;;;;;7.45;2.15;;;;;;;;;;5096288;28;19920;-67
2022/05/12 10:09:52;;;;;;;14.18;3.15;;;;;;;;;;5091019;28;20321;-67
2022/05/12 10:12:22;;;;;;;7.65;2.13;;;;;;;;;;5095505;28;20140;-67
2022/05/12 10:14:54;;;;;;;5.88;1.88;;;;;;;;;;5097429;28;20051;-67
2022/05/12 10:17:35;;;;;;;5.40;1.67;;;;;;;;;;5095591;28;20036;-67
2022/05/12 10:20:09;;;;;;;6.85;1.83;;;;;;;;;;5095523;28;20440;-67
2022/05/12 10:22:54;;;;;;;5.28;1.75;;;;;;;;;;5095397;28;20063;-67
2022/05/12 10:25:39;;;;;;;5.10;1.67;;;;;;;;;;5095215;28;20518;-67
2022/05/12 10:28:28;;;;;;;6.05;1.83;;;;;;;;;;5094910;28;20495;-67
2022/05/12 10:31:13;;;;;;;5.55;1.95;;;;;;;;;;5095252;28;20052;-67
2022/05/12 10:33:51;;;;;;;3.05;1.60;;;;;;;;;;5095203;28;20050;-67
2022/05/12 10:36:33;;;;;;;9.10;1.95;;;;;;;;;;5095192;28;20429;-69
2022/05/12 10:39:08;;;;;;;6.43;1.83;;;;;;;;;;5095579;28;20157;-66
2022/05/12 10:41:36;;;;;;;4.40;1.75;;;;;;;;;;5095055;28;20487;-66
2022/05/12 10:44:13;;;;;;;3.33;1.70;;;;;;;;;;5095489;28;20047;-66
2022/05/12 10:46:47;;;;;;;4.82;1.65;;;;;;;;;;5095397;28;20093;-69
2022/05/12 10:49:32;;;;;;;6.25;2.10;;;;;;;;;;5094334;28;20048;-68
2022/05/12 10:52:13;;;;;;;4.20;1.38;;;;;;;;;;5095532;28;20093;-68
2022/05/12 10:54:48;;;;;;;6.55;1.60;;;;;;;;;;5095383;28;20055;-69
2022/05/12 10:57:25;;;;;;;4.20;1.70;;;;;;;;;;5094979;28;20089;-66
2022/05/12 10:59:59;;;;;;;3.80;1.42;;;;;;;;;;5074966;28;20048;-67
2022/05/12 11:02:38;;;;;;;3.67;1.45;;;;;;;;;;5075014;28;20045;-68
2022/05/12 11:05:07;;;;;;;4.78;2.10;;;;;;;;;;5081437;28;20406;-67
2022/05/12 11:07:36;;;;;;;5.20;1.90;;;;;;;;;;5094724;28;20039;-67
2022/05/12 11:10:05;;;;;;;4.88;1.40;;;;;;;;;;5094834;28;20078;-67
2022/05/12 11:12:34;;;;;;;5.45;1.60;;;;;;;;;;5094508;28;20044;-67
2022/05/12 11:15:12;;;;;;;4.72;1.50;;;;;;;;;;5094579;28;20047;-67
2022/05/12 11:17:49;;;;;;;4.53;1.50;;;;;;;;;;5093313;28;20542;-67
2022/05/12 11:20:15;;;;;;;3.90;1.38;;;;;;;;;;5094541;28;20051;-68
2022/05/12 11:22:50;;;;;;;4.28;1.40;;;;;;;;;;5094473;28;20040;-68
2022/05/12 11:25:42;;;;;;;3.42;1.90;;;;;;;;;;5094770;28;20058;-67
2022/05/12 11:31:07;;;;;;;5.85;1.98;;;;;;;;;;5095768;28;20075;-67
2022/05/12 11:33:34;;;;;;;3.55;1.40;;;;;;;;;;5096542;28;20047;-67
2022/05/12 11:36:01;;;;;;;13.43;3.15;;;;;;;;;;5094086;28;20399;-67
2022/05/12 11:38:37;;;;;;;4.13;1.10;;;;;;;;;;5093374;28;20047;-67
2022/05/12 11:41:04;;;;;;;6.07;1.27;;;;;;;;;;5093628;28;20055;-67
2022/05/12 11:46:34;;;;;;;3.80;1.30;;;;;;;;;;5092677;28;20093;-68
2022/05/12 11:49:05;;;;;;;5.30;1.55;;;;;;;;;;5093908;28;20047;-67
2022/05/12 11:51:43;;;;;;;14.88;3.65;;;;;;;;;;5101189;28;20112;-67
2022/05/12 11:54:28;;;;;;;8.85;2.22;;;;;;;;;;5093658;28;20040;-67
2022/05/12 11:56:56;;;;;;;2.88;1.15;;;;;;;;;;5093806;28;20048;-67
2022/05/12 11:59:31;;;;;;;7.65;1.75;;;;;;;;;;5094022;28;20063;-67
2022/05/12 12:02:01;;;;;;;4.85;1.15;;;;;;;;;;5093307;28;20394;-67
2022/05/12 12:04:42;;;;;;;3.92;1.10;;;;;;;;;;5092525;28;20135;-67
2022/05/12 12:07:16;;;;;;;3.67;0.95;;;;;;;;;;5093839;28;20044;-67
2022/05/12 12:09:43;;;;;;;5.30;1.13;;;;;;;;;;5093824;28;20040;-66
2022/05/12 12:12:10;;;;;;;6.63;1.15;;;;;;;;;;5093683;28;20043;-67
2022/05/12 12:14:48;;;;;;;3.92;1.40;;;;;;;;;;5092448;28;20067;-67
2022/05/12 12:17:24;;;;;;;4.63;1.27;;;;;;;;;;5093991;28;20032;-68
2022/05/12 12:19:50;;;;;;;2.72;1.00;;;;;;;;;;5093846;28;20052;-66
2022/05/12 12:22:37;;;;;;;2.85;1.08;;;;;;;;;;5093503;28;20566;-67
2022/05/12 12:25:04;;;;;;;6.07;1.10;;;;;;;;;;5093612;28;20473;-67
2022/05/12 12:27:49;;;;;;;4.13;0.80;;;;;;;;;;5093366;28;20050;-68
2022/05/12 12:30:26;;;;;;;4.03;1.23;;;;;;;;;;5093315;28;20495;-67
2022/05/12 12:33:13;;;;;;;3.80;1.13;;;;;;;;;;5093467;28;20058;-67
2022/05/12 12:35:50;;;;;;;1.80;0.90;;;;;;;;;;5091687;28;20510;-67
2022/05/12 12:38:39;;;;;;;4.30;1.40;;;;;;;;;;5093128;28;20057;-67
2022/05/12 12:41:05;;;;;;;2.60;1.17;;;;;;;;;;5050387;28;20106;-67
2022/05/12 12:43:35;;;;;;;3.22;1.20;;;;;;;;;;5050438;28;20466;-68
2022/05/12 12:46:10;;;;;;;4.05;1.10;;;;;;;;;;5050256;28;20503;-67
2022/05/12 12:48:39;;;;;;;5.68;1.27;;;;;;;;;;5034144;28;20076;-67
2022/05/12 12:51:05;;;;;;;2.92;0.90;;;;;;;;;;5050554;28;20041;-68
2022/05/12 12:56:32;;;;;;;4.28;1.17;;;;;;;;;;5050628;28;20053;-67
2022/05/12 12:58:59;;;;;;;5.40;1.17;;;;;;;;;;5049093;28;20135;-67
2022/05/12 13:01:35;;;;;;;7.43;1.20;;;;;;;;;;5050431;28;20056;-67
2022/05/12 13:04:01;;;;;;;6.43;1.25;;;;;;;;;;5033976;28;20087;-67
2022/05/12 13:06:30;;;;;;;3.65;1.02;;;;;;;;;;5050615;28;20080;-67
2022/05/12 13:08:57;;;;;;;2.90;1.00;;;;;;;;;;5050414;28;20060;-67
2022/05/12 13:11:23;;;;;;;3.20;1.13;;;;;;;;;;5050441;28;20459;-67
2022/05/12 13:13:50;;;;;;;8.80;2.08;;;;;;;;;;5050270;28;20041;-67
2022/05/12 13:16:17;;;;;;;5.55;1.10;;;;;;;;;;5050421;28;20044;-67
2022/05/12 13:18:49;;;;;;;4.05;1.08;;;;;;;;;;5083059;28;20411;-67
2022/05/12 13:21:20;;;;;;;5.72;1.45;;;;;;;;;;5092927;28;20079;-67
2022/05/12 13:23:57;;;;;;;6.22;1.30;;;;;;;;;;5092931;28;20052;-67
2022/05/12 13:26:23;;;;;;;6.82;2.00;;;;;;;;;;5092799;28;20482;-67
2022/05/12 13:28:49;;;;;;;5.13;1.15;;;;;;;;;;5092871;28;20047;-67
2022/05/12 13:31:18;;;;;;;5.30;1.08;;;;;;;;;;5092606;28;20052;-67
2022/05/12 13:34:02;;;;;;;10.15;1.70;;;;;;;;;;5091253;28;20052;-67
2022/05/12 13:36:54;;;;;;;3.30;1.00;;;;;;;;;;5092404;28;20044;-67
2022/05/12 13:39:38;;;;;;;4.22;0.90;;;;;;;;;;5084013;28;20084;-67
2022/05/12 13:42:06;;;;;;;13.00;2.95;;;;;;;;;;5092592;28;20042;-67
2022/05/12 13:44:36;;;;;;;15.02;3.17;;;;;;;;;;5091264;28;20406;-68
2022/05/12 13:47:04;;;;;;;3.03;1.33;;;;;;;;;;5092439;28;20388;-67
2022/05/12 13:49:35;;;;;;;6.10;1.30;;;;;;;;;;5092633;28;20426;-68
2022/05/12 13:52:15;;;;;;;6.47;1.25;;;;;;;;;;5091454;28;20278;-67
2022/05/12 13:54:59;;;;;;;2.97;1.38;;;;;;;;;;5092419;28;20093;-67
2022/05/12 13:57:31;;;;;;;3.30;1.67;;;;;;;;;;5092588;28;20040;-67
2022/05/12 13:59:59;;;;;;;4.60;1.20;;;;;;;;;;5092470;28;20055;-67
2022/05/12 14:02:29;;;;;;;5.05;1.33;;;;;;;;;;5094073;28;20036;-67
2022/05/12 14:05:00;;;;;;;2.97;1.20;;;;;;;;;;5096207;28;20044;-66
2022/05/12 14:07:30;;;;;;;5.03;1.50;;;;;;;;;;5096242;28;20162;-67
2022/05/12 14:09:59;;;;;;;12.65;2.38;;;;;;;;;;5096325;28;20055;-66
2022/05/12 14:12:25;;;;;;;;;;;;;;;;;;5096442;28;20044;-68
2022/05/12 14:20:25;;;;;;;3.60;1.30;;;;;;;;;;5096089;28;20044;-67
2022/05/12 14:22:51;;;;;;;4.97;1.50;;;;;;;;;;5095992;28;20048;-67
2022/05/12 14:25:17;;;;;;;9.23;2.50;;;;;;;;;;5095784;28;20506;-66
2022/05/12 14:27:44;;;;;;;5.50;1.90;;;;;;;;;;5095959;28;20064;-67
2022/05/12 14:30:10;;;;;;;32.58;6.53;;;;;;;;;;5095694;28;20417;-66
2022/05/12 14:32:44;;;;;;;4.63;1.17;;;;;;;;;;5095428;28;20044;-67
2022/05/12 14:35:12;;;;;;;4.70;1.30;;;;;;;;;;5095806;28;20046;-66
2022/05/12 14:37:39;;;;;;;3.05;1.33;;;;;;;;;;5095784;28;20093;-67
2022/05/12 14:40:06;;;;;;;4.13;1.50;;;;;;;;;;5095676;28;20066;-67
2022/05/12 14:42:32;;;;;;;3.90;1.65;;;;;;;;;;5095946;28;20097;-68
2022/05/12 14:44:58;;;;;;;6.45;1.48;;;;;;;;;;5095556;28;20078;-67
2022/05/12 14:47:27;;;;;;;4.45;1.38;;;;;;;;;;5095683;28;20086;-67
2022/05/12 14:49:53;;;;;;;;;;;;;;;;;;5096020;28;20048;-66
2022/05/12 14:52:20;;;;;;;6.72;1.75;;;;;;;;;;5095302;28;19919;-67
2022/05/12 14:54:49;;;;;;;12.40;2.92;;;;;;;;;;5095356;28;20101;-68
2022/05/12 14:57:15;;;;;;;4.43;1.50;;;;;;;;;;5095350;28;20105;-67
2022/05/12 14:59:41;;;;;;;3.35;1.40;;;;;;;;;;5095312;28;20402;-67
2022/05/12 15:02:09;;;;;;;5.55;1.70;;;;;;;;;;5095458;28;20047;-67
2022/05/12 15:04:35;;;;;;;5.82;1.67;;;;;;;;;;5094069;28;20406;-67
2022/05/12 15:07:02;;;;;;;13.77;1.90;;;;;;;;;;5097699;28;20047;-67
2022/05/12 15:09:28;;;;;;;6.32;1.65;;;;;;;;;;5097107;28;20050;-68
2022/05/12 15:11:54;;;;;;;4.10;1.70;;;;;;;;;;5095596;28;20090;-67
2022/05/12 15:14:20;;;;;;;5.10;1.95;;;;;;;;;;5093873;28;20400;-67
2022/05/12 15:16:46;;;;;;;6.57;1.63;;;;;;;;;;5095406;28;20075;-67
2022/05/12 15:19:13;;;;;;;3.40;1.60;;;;;;;;;;5095329;28;20052;-66
2022/05/12 15:21:39;;;;;;;2.88;1.33;;;;;;;;;;5095344;28;20129;-67